sensor_id;sensor_type;location;lat;lon;timestamp;temperature;humidity
30385;DHT22;17181;51.002;4.096;2023-04-15T00:01:35;11.50;92.30
30385;DHT22;17181;51.002;4.096;2023-04-15T00:04:01;11.50;92.50
30385;DHT22;17181;51.002;4.096;2023-04-15T00:06:27;11.50;92.60
30385;DHT22;17181;51.002;4.096;2023-04-15T00:08:53;11.50;92.70
30385;DHT22;17181;51.002;4.096;2023-04-15T00:11:20;11.50;92.60
30385;DHT22;17181;51.002;4.096;2023-04-15T00:13:45;11.60;92.70
30385;DHT22;17181;51.002;4.096;2023-04-15T00:16:11;11.60;92.70
30385;DHT22;17181;51.002;4.096;2023-04-15T00:18:37;11.60;92.70
30385;DHT22;17181;51.002;4.096;2023-04-15T00:21:04;11.70;92.80
30385;DHT22;17181;51.002;4.096;2023-04-15T00:23:30;11.70;92.80
30385;DHT22;17181;51.002;4.096;2023-04-15T00:25:56;11.70;92.80
30385;DHT22;17181;51.002;4.096;2023-04-15T00:28:22;11.70;93.20
30385;DHT22;17181;51.002;4.096;2023-04-15T00:30:47;11.60;93.40
30385;DHT22;17181;51.002;4.096;2023-04-15T00:33:14;11.50;93.50
30385;DHT22;17181;51.002;4.096;2023-04-15T00:35:41;11.40;93.50
30385;DHT22;17181;51.002;4.096;2023-04-15T00:38:07;11.30;93.50
30385;DHT22;17181;51.002;4.096;2023-04-15T00:40:33;11.30;93.70
30385;DHT22;17181;51.002;4.096;2023-04-15T00:43:00;11.30;93.70
30385;DHT22;17181;51.002;4.096;2023-04-15T00:45:26;11.20;93.80
30385;DHT22;17181;51.002;4.096;2023-04-15T00:47:54;11.20;94.00
30385;DHT22;17181;51.002;4.096;2023-04-15T00:50:20;11.20;94.40
30385;DHT22;17181;51.002;4.096;2023-04-15T00:52:47;11.20;94.20
30385;DHT22;17181;51.002;4.096;2023-04-15T00:55:14;11.20;94.30
30385;DHT22;17181;51.002;4.096;2023-04-15T00:57:40;11.20;94.40
30385;DHT22;17181;51.002;4.096;2023-04-15T01:00:06;11.20;94.60
30385;DHT22;17181;51.002;4.096;2023-04-15T01:02:34;11.10;94.70
30385;DHT22;17181;51.002;4.096;2023-04-15T01:05:01;11.10;94.90
30385;DHT22;17181;51.002;4.096;2023-04-15T01:07:29;11.10;94.90
30385;DHT22;17181;51.002;4.096;2023-04-15T01:09:55;11.10;95.10
30385;DHT22;17181;51.002;4.096;2023-04-15T01:12:21;11.10;95.30
30385;DHT22;17181;51.002;4.096;2023-04-15T01:14:49;11.20;95.40
30385;DHT22;17181;51.002;4.096;2023-04-15T01:17:15;11.10;95.50
30385;DHT22;17181;51.002;4.096;2023-04-15T01:19:41;11.10;95.70
30385;DHT22;17181;51.002;4.096;2023-04-15T01:22:07;11.10;95.70
30385;DHT22;17181;51.002;4.096;2023-04-15T01:24:33;11.10;95.90
30385;DHT22;17181;51.002;4.096;2023-04-15T01:27:00;11.10;95.90
30385;DHT22;17181;51.002;4.096;2023-04-15T01:29:25;11.00;96.00
30385;DHT22;17181;51.002;4.096;2023-04-15T01:31:52;11.00;96.10
30385;DHT22;17181;51.002;4.096;2023-04-15T01:34:19;10.90;96.30
30385;DHT22;17181;51.002;4.096;2023-04-15T01:36:45;10.90;96.40
30385;DHT22;17181;51.002;4.096;2023-04-15T01:39:13;10.90;96.60
30385;DHT22;17181;51.002;4.096;2023-04-15T01:41:38;10.80;96.80
30385;DHT22;17181;51.002;4.096;2023-04-15T01:44:05;10.80;97.00
30385;DHT22;17181;51.002;4.096;2023-04-15T01:46:32;10.80;97.90
30385;DHT22;17181;51.002;4.096;2023-04-15T01:48:59;10.80;98.60
30385;DHT22;17181;51.002;4.096;2023-04-15T01:51:25;10.70;98.40
30385;DHT22;17181;51.002;4.096;2023-04-15T01:53:52;10.70;98.40
30385;DHT22;17181;51.002;4.096;2023-04-15T01:56:18;10.60;99.10
30385;DHT22;17181;51.002;4.096;2023-04-15T01:58:44;10.60;99.20
30385;DHT22;17181;51.002;4.096;2023-04-15T02:01:10;10.50;99.30
30385;DHT22;17181;51.002;4.096;2023-04-15T02:03:36;10.50;99.50
30385;DHT22;17181;51.002;4.096;2023-04-15T02:06:03;10.50;99.70
30385;DHT22;17181;51.002;4.096;2023-04-15T02:08:30;10.50;99.80
30385;DHT22;17181;51.002;4.096;2023-04-15T02:10:57;10.50;99.90
30385;DHT22;17181;51.002;4.096;2023-04-15T02:13:24;10.60;99.90
30385;DHT22;17181;51.002;4.096;2023-04-15T02:15:49;10.60;99.90
30385;DHT22;17181;51.002;4.096;2023-04-15T02:18:18;10.60;99.90
30385;DHT22;17181;51.002;4.096;2023-04-15T02:20:44;10.60;99.90
30385;DHT22;17181;51.002;4.096;2023-04-15T02:23:10;10.60;99.90
30385;DHT22;17181;51.002;4.096;2023-04-15T02:25:36;10.70;99.90
30385;DHT22;17181;51.002;4.096;2023-04-15T02:28:04;10.70;99.90
30385;DHT22;17181;51.002;4.096;2023-04-15T02:30:31;10.70;99.90
30385;DHT22;17181;51.002;4.096;2023-04-15T02:33:02;10.70;99.90
30385;DHT22;17181;51.002;4.096;2023-04-15T02:35:28;10.70;99.90
30385;DHT22;17181;51.002;4.096;2023-04-15T02:37:54;10.70;99.90
30385;DHT22;17181;51.002;4.096;2023-04-15T02:40:20;10.80;99.90
30385;DHT22;17181;51.002;4.096;2023-04-15T02:42:46;10.70;99.90
30385;DHT22;17181;51.002;4.096;2023-04-15T02:45:14;10.70;99.90
30385;DHT22;17181;51.002;4.096;2023-04-15T02:47:42;10.70;99.90
30385;DHT22;17181;51.002;4.096;2023-04-15T02:50:10;10.70;99.90
30385;DHT22;17181;51.002;4.096;2023-04-15T02:52:41;10.70;99.90
30385;DHT22;17181;51.002;4.096;2023-04-15T02:55:08;10.70;99.90
30385;DHT22;17181;51.002;4.096;2023-04-15T02:57:35;10.70;99.90
30385;DHT22;17181;51.002;4.096;2023-04-15T03:00:08;10.70;99.90
30385;DHT22;17181;51.002;4.096;2023-04-15T03:02:38;10.70;99.90
30385;DHT22;17181;51.002;4.096;2023-04-15T03:05:06;10.60;99.90
30385;DHT22;17181;51.002;4.096;2023-04-15T03:07:32;10.60;99.90
30385;DHT22;17181;51.002;4.096;2023-04-15T03:09:59;10.50;99.90
30385;DHT22;17181;51.002;4.096;2023-04-15T03:12:25;10.50;99.90
30385;DHT22;17181;51.002;4.096;2023-04-15T03:14:55;10.50;99.90
30385;DHT22;17181;51.002;4.096;2023-04-15T03:17:27;10.50;99.90
30385;DHT22;17181;51.002;4.096;2023-04-15T03:19:53;10.40;99.90
30385;DHT22;17181;51.002;4.096;2023-04-15T03:22:19;10.40;99.90
30385;DHT22;17181;51.002;4.096;2023-04-15T03:24:45;10.40;99.90
30385;DHT22;17181;51.002;4.096;2023-04-15T03:27:11;10.40;99.90
30385;DHT22;17181;51.002;4.096;2023-04-15T03:29:38;10.40;99.90
30385;DHT22;17181;51.002;4.096;2023-04-15T03:32:04;10.30;99.90
30385;DHT22;17181;51.002;4.096;2023-04-15T03:34:33;10.40;99.90
30385;DHT22;17181;51.002;4.096;2023-04-15T03:37:02;10.30;99.90
30385;DHT22;17181;51.002;4.096;2023-04-15T03:39:28;10.30;99.90
30385;DHT22;17181;51.002;4.096;2023-04-15T03:41:53;10.30;99.90
30385;DHT22;17181;51.002;4.096;2023-04-15T05:40:19;10.40;99.90
30385;DHT22;17181;51.002;4.096;2023-04-15T05:42:46;10.40;99.90
30385;DHT22;17181;51.002;4.096;2023-04-15T06:11:28;10.50;99.90
30385;DHT22;17181;51.002;4.096;2023-04-15T06:13:55;10.60;99.90
30385;DHT22;17181;51.002;4.096;2023-04-15T06:16:22;10.70;99.90
30385;DHT22;17181;51.002;4.096;2023-04-15T06:18:48;10.70;99.90
30385;DHT22;17181;51.002;4.096;2023-04-15T06:21:15;10.70;99.90
30385;DHT22;17181;51.002;4.096;2023-04-15T06:23:41;10.70;99.90
30385;DHT22;17181;51.002;4.096;2023-04-15T06:26:07;10.80;99.90
30385;DHT22;17181;51.002;4.096;2023-04-15T06:28:38;10.80;99.90
30385;DHT22;17181;51.002;4.096;2023-04-15T06:34:00;10.90;99.90
30385;DHT22;17181;51.002;4.096;2023-04-15T06:36:27;10.90;99.90
30385;DHT22;17181;51.002;4.096;2023-04-15T07:47:09;12.20;99.90
30385;DHT22;17181;51.002;4.096;2023-04-15T09:16:59;14.10;99.90
30385;DHT22;17181;51.002;4.096;2023-04-15T09:19:29;14.20;99.90
30385;DHT22;17181;51.002;4.096;2023-04-15T09:21:59;14.40;99.90
30385;DHT22;17181;51.002;4.096;2023-04-15T09:24:39;14.50;99.90
30385;DHT22;17181;51.002;4.096;2023-04-15T09:27:11;14.70;99.90
30385;DHT22;17181;51.002;4.096;2023-04-15T09:29:45;14.80;99.90
30385;DHT22;17181;51.002;4.096;2023-04-15T09:32:56;14.90;99.90
30385;DHT22;17181;51.002;4.096;2023-04-15T09:35:28;15.00;99.90
30385;DHT22;17181;51.002;4.096;2023-04-15T09:40:39;15.20;99.90
30385;DHT22;17181;51.002;4.096;2023-04-15T09:43:09;15.30;99.90
30385;DHT22;17181;51.002;4.096;2023-04-15T09:46:18;15.40;99.90
30385;DHT22;17181;51.002;4.096;2023-04-15T09:48:46;15.50;99.90
30385;DHT22;17181;51.002;4.096;2023-04-15T09:52:00;15.60;99.90
30385;DHT22;17181;51.002;4.096;2023-04-15T10:15:03;16.00;95.90
30385;DHT22;17181;51.002;4.096;2023-04-15T10:17:32;16.00;95.40
30385;DHT22;17181;51.002;4.096;2023-04-15T10:20:03;16.00;94.90
30385;DHT22;17181;51.002;4.096;2023-04-15T10:22:31;16.00;94.10
30385;DHT22;17181;51.002;4.096;2023-04-15T10:24:58;16.00;93.40
30385;DHT22;17181;51.002;4.096;2023-04-15T10:27:26;16.10;93.50
30385;DHT22;17181;51.002;4.096;2023-04-15T10:29:52;16.10;93.30
30385;DHT22;17181;51.002;4.096;2023-04-15T10:32:19;16.10;93.50
30385;DHT22;17181;51.002;4.096;2023-04-15T10:34:49;16.10;93.30
30385;DHT22;17181;51.002;4.096;2023-04-15T10:37:21;16.20;93.20
30385;DHT22;17181;51.002;4.096;2023-04-15T10:39:47;16.20;93.10
30385;DHT22;17181;51.002;4.096;2023-04-15T10:42:17;16.30;92.40
30385;DHT22;17181;51.002;4.096;2023-04-15T10:44:51;16.40;92.30
30385;DHT22;17181;51.002;4.096;2023-04-15T10:47:21;16.40;91.90
30385;DHT22;17181;51.002;4.096;2023-04-15T10:49:49;16.40;91.90
30385;DHT22;17181;51.002;4.096;2023-04-15T10:52:17;16.40;91.60
30385;DHT22;17181;51.002;4.096;2023-04-15T10:54:43;16.40;91.20
30385;DHT22;17181;51.002;4.096;2023-04-15T10:57:15;16.40;89.20
30385;DHT22;17181;51.002;4.096;2023-04-15T11:00:03;16.40;87.80
30385;DHT22;17181;51.002;4.096;2023-04-15T11:02:58;16.40;86.50
30385;DHT22;17181;51.002;4.096;2023-04-15T11:08:15;16.30;83.10
30385;DHT22;17181;51.002;4.096;2023-04-15T11:15:43;16.20;81.10
30385;DHT22;17181;51.002;4.096;2023-04-15T11:18:17;16.30;81.50
30385;DHT22;17181;51.002;4.096;2023-04-15T11:23:16;16.30;81.40
30385;DHT22;17181;51.002;4.096;2023-04-15T11:25:43;16.40;80.50
30385;DHT22;17181;51.002;4.096;2023-04-15T11:28:09;16.40;79.80
30385;DHT22;17181;51.002;4.096;2023-04-15T11:30:36;16.40;78.90
30385;DHT22;17181;51.002;4.096;2023-04-15T11:33:08;16.40;77.40
30385;DHT22;17181;51.002;4.096;2023-04-15T11:35:34;16.40;77.10
30385;DHT22;17181;51.002;4.096;2023-04-15T11:38:04;16.40;77.30
30385;DHT22;17181;51.002;4.096;2023-04-15T11:40:33;16.50;76.80
30385;DHT22;17181;51.002;4.096;2023-04-15T11:48:16;16.50;72.30
30385;DHT22;17181;51.002;4.096;2023-04-15T11:50:42;16.60;72.00
30385;DHT22;17181;51.002;4.096;2023-04-15T11:53:11;16.60;71.50
30385;DHT22;17181;51.002;4.096;2023-04-15T11:55:48;16.70;70.80
30385;DHT22;17181;51.002;4.096;2023-04-15T11:58:23;16.70;71.30
30385;DHT22;17181;51.002;4.096;2023-04-15T12:00:50;16.70;71.40
30385;DHT22;17181;51.002;4.096;2023-04-15T12:03:35;16.70;71.10
30385;DHT22;17181;51.002;4.096;2023-04-15T12:11:45;16.80;70.80
30385;DHT22;17181;51.002;4.096;2023-04-15T12:16:49;16.80;70.40
30385;DHT22;17181;51.002;4.096;2023-04-15T12:19:17;16.80;71.20
30385;DHT22;17181;51.002;4.096;2023-04-15T12:21:45;16.80;70.90
30385;DHT22;17181;51.002;4.096;2023-04-15T12:24:12;16.80;70.80
30385;DHT22;17181;51.002;4.096;2023-04-15T12:26:46;16.80;71.20
30385;DHT22;17181;51.002;4.096;2023-04-15T12:29:13;16.80;71.30
30385;DHT22;17181;51.002;4.096;2023-04-15T12:31:51;16.80;71.30
30385;DHT22;17181;51.002;4.096;2023-04-15T12:34:39;16.80;70.90
30385;DHT22;17181;51.002;4.096;2023-04-15T12:37:06;16.80;69.40
30385;DHT22;17181;51.002;4.096;2023-04-15T12:39:37;16.80;69.40
30385;DHT22;17181;51.002;4.096;2023-04-15T12:42:04;16.80;69.60
30385;DHT22;17181;51.002;4.096;2023-04-15T12:44:31;16.80;69.40
30385;DHT22;17181;51.002;4.096;2023-04-15T12:46:58;16.80;69.20
30385;DHT22;17181;51.002;4.096;2023-04-15T12:49:25;16.90;68.60
30385;DHT22;17181;51.002;4.096;2023-04-15T12:51:58;16.90;68.00
30385;DHT22;17181;51.002;4.096;2023-04-15T12:54:25;17.00;68.70
30385;DHT22;17181;51.002;4.096;2023-04-15T12:56:52;17.00;69.90
30385;DHT22;17181;51.002;4.096;2023-04-15T12:59:18;17.10;70.70
30385;DHT22;17181;51.002;4.096;2023-04-15T13:01:46;17.10;71.00
30385;DHT22;17181;51.002;4.096;2023-04-15T13:04:12;17.10;70.70
30385;DHT22;17181;51.002;4.096;2023-04-15T13:06:37;17.10;70.60
30385;DHT22;17181;51.002;4.096;2023-04-15T13:09:03;17.00;69.70
30385;DHT22;17181;51.002;4.096;2023-04-15T13:11:30;17.00;69.50
30385;DHT22;17181;51.002;4.096;2023-04-15T13:14:01;17.00;69.30
30385;DHT22;17181;51.002;4.096;2023-04-15T13:16:28;17.00;69.30
30385;DHT22;17181;51.002;4.096;2023-04-15T13:18:54;17.00;69.30
30385;DHT22;17181;51.002;4.096;2023-04-15T13:21:19;17.10;69.30
30385;DHT22;17181;51.002;4.096;2023-04-15T13:23:45;17.00;69.50
30385;DHT22;17181;51.002;4.096;2023-04-15T13:26:12;17.10;70.30
30385;DHT22;17181;51.002;4.096;2023-04-15T13:28:38;17.20;71.90
30385;DHT22;17181;51.002;4.096;2023-04-15T13:31:04;17.60;72.50
30385;DHT22;17181;51.002;4.096;2023-04-15T13:33:30;18.10;72.40
30385;DHT22;17181;51.002;4.096;2023-04-15T13:35:56;18.80;70.60
30385;DHT22;17181;51.002;4.096;2023-04-15T15:18:27;20.60;64.40
30385;DHT22;17181;51.002;4.096;2023-04-15T15:20:54;20.30;63.40
30385;DHT22;17181;51.002;4.096;2023-04-15T15:23:20;19.80;64.00
30385;DHT22;17181;51.002;4.096;2023-04-15T15:25:46;19.60;65.20
30385;DHT22;17181;51.002;4.096;2023-04-15T15:28:12;19.70;65.00
30385;DHT22;17181;51.002;4.096;2023-04-15T15:30:38;19.70;64.70
30385;DHT22;17181;51.002;4.096;2023-04-15T15:33:03;19.70;65.10
30385;DHT22;17181;51.002;4.096;2023-04-15T15:35:29;19.80;65.90
30385;DHT22;17181;51.002;4.096;2023-04-15T15:37:55;20.10;64.00
30385;DHT22;17181;51.002;4.096;2023-04-15T15:40:21;20.20;64.60
30385;DHT22;17181;51.002;4.096;2023-04-15T15:42:47;20.30;64.60
30385;DHT22;17181;51.002;4.096;2023-04-15T15:45:15;20.50;64.00
30385;DHT22;17181;51.002;4.096;2023-04-15T15:47:41;20.40;63.70
30385;DHT22;17181;51.002;4.096;2023-04-15T15:50:07;20.50;64.20
30385;DHT22;17181;51.002;4.096;2023-04-15T15:52:33;20.60;63.20
30385;DHT22;17181;51.002;4.096;2023-04-15T15:54:59;20.60;62.70
30385;DHT22;17181;51.002;4.096;2023-04-15T15:57:26;20.40;62.60
30385;DHT22;17181;51.002;4.096;2023-04-15T15:59:52;20.40;61.90
30385;DHT22;17181;51.002;4.096;2023-04-15T16:02:18;20.30;62.00
30385;DHT22;17181;51.002;4.096;2023-04-15T16:04:44;20.20;61.80
30385;DHT22;17181;51.002;4.096;2023-04-15T16:07:10;20.20;61.80
30385;DHT22;17181;51.002;4.096;2023-04-15T16:09:40;20.10;61.20
30385;DHT22;17181;51.002;4.096;2023-04-15T16:12:07;20.00;61.80
30385;DHT22;17181;51.002;4.096;2023-04-15T16:14:32;19.90;62.00
30385;DHT22;17181;51.002;4.096;2023-04-15T16:16:58;19.90;62.00
30385;DHT22;17181;51.002;4.096;2023-04-15T16:19:24;19.80;61.60
30385;DHT22;17181;51.002;4.096;2023-04-15T16:21:53;19.70;61.50
30385;DHT22;17181;51.002;4.096;2023-04-15T16:24:19;19.60;61.30
30385;DHT22;17181;51.002;4.096;2023-04-15T16:26:45;19.50;61.10
30385;DHT22;17181;51.002;4.096;2023-04-15T16:29:10;19.50;61.30
30385;DHT22;17181;51.002;4.096;2023-04-15T16:31:36;19.50;61.50
30385;DHT22;17181;51.002;4.096;2023-04-15T16:34:05;19.50;61.70
30385;DHT22;17181;51.002;4.096;2023-04-15T16:36:33;19.50;62.30
30385;DHT22;17181;51.002;4.096;2023-04-15T16:38:59;19.60;62.90
30385;DHT22;17181;51.002;4.096;2023-04-15T16:41:25;19.80;62.50
30385;DHT22;17181;51.002;4.096;2023-04-15T16:43:52;19.80;61.80
30385;DHT22;17181;51.002;4.096;2023-04-15T16:46:17;19.50;61.20
30385;DHT22;17181;51.002;4.096;2023-04-15T16:48:43;19.30;61.70
30385;DHT22;17181;51.002;4.096;2023-04-15T16:51:09;19.10;62.20
30385;DHT22;17181;51.002;4.096;2023-04-15T16:53:35;19.00;62.80
30385;DHT22;17181;51.002;4.096;2023-04-15T16:56:00;18.90;63.10
30385;DHT22;17181;51.002;4.096;2023-04-15T16:58:26;18.90;63.60
30385;DHT22;17181;51.002;4.096;2023-04-15T17:00:53;18.90;63.80
30385;DHT22;17181;51.002;4.096;2023-04-15T17:03:19;18.90;64.10
30385;DHT22;17181;51.002;4.096;2023-04-15T17:05:44;18.90;64.20
30385;DHT22;17181;51.002;4.096;2023-04-15T17:08:10;18.90;63.90
30385;DHT22;17181;51.002;4.096;2023-04-15T17:10:36;18.90;63.90
30385;DHT22;17181;51.002;4.096;2023-04-15T17:13:02;18.70;63.90
30385;DHT22;17181;51.002;4.096;2023-04-15T17:15:28;18.50;64.40
30385;DHT22;17181;51.002;4.096;2023-04-15T17:17:53;18.30;64.70
30385;DHT22;17181;51.002;4.096;2023-04-15T17:20:19;18.20;65.30
30385;DHT22;17181;51.002;4.096;2023-04-15T17:22:46;18.20;65.60
30385;DHT22;17181;51.002;4.096;2023-04-15T17:25:13;18.10;65.60
30385;DHT22;17181;51.002;4.096;2023-04-15T17:27:39;18.00;65.50
30385;DHT22;17181;51.002;4.096;2023-04-15T17:30:06;17.60;65.80
30385;DHT22;17181;51.002;4.096;2023-04-15T17:32:32;17.20;66.20
30385;DHT22;17181;51.002;4.096;2023-04-15T17:35:08;16.90;66.80
30385;DHT22;17181;51.002;4.096;2023-04-15T17:37:34;16.40;68.00
30385;DHT22;17181;51.002;4.096;2023-04-15T17:40:00;16.00;68.70
30385;DHT22;17181;51.002;4.096;2023-04-15T17:42:26;15.60;69.50
30385;DHT22;17181;51.002;4.096;2023-04-15T17:44:52;15.30;70.60
30385;DHT22;17181;51.002;4.096;2023-04-15T17:47:17;15.10;70.90
30385;DHT22;17181;51.002;4.096;2023-04-15T17:49:43;14.90;71.50
30385;DHT22;17181;51.002;4.096;2023-04-15T17:52:09;14.70;73.50
30385;DHT22;17181;51.002;4.096;2023-04-15T17:54:35;14.50;73.30
30385;DHT22;17181;51.002;4.096;2023-04-15T17:57:01;14.30;73.10
30385;DHT22;17181;51.002;4.096;2023-04-15T17:59:28;14.10;73.60
30385;DHT22;17181;51.002;4.096;2023-04-15T18:01:54;14.10;74.40
30385;DHT22;17181;51.002;4.096;2023-04-15T18:04:19;13.90;74.30
30385;DHT22;17181;51.002;4.096;2023-04-15T18:06:45;13.80;74.90
30385;DHT22;17181;51.002;4.096;2023-04-15T18:09:11;13.70;76.10
30385;DHT22;17181;51.002;4.096;2023-04-15T18:11:37;13.50;75.90
30385;DHT22;17181;51.002;4.096;2023-04-15T18:14:04;13.40;75.90
30385;DHT22;17181;51.002;4.096;2023-04-15T18:16:30;13.30;76.40
30385;DHT22;17181;51.002;4.096;2023-04-15T18:18:56;13.20;77.30
30385;DHT22;17181;51.002;4.096;2023-04-15T18:21:22;13.10;77.20
30385;DHT22;17181;51.002;4.096;2023-04-15T18:23:48;13.00;77.90
30385;DHT22;17181;51.002;4.096;2023-04-15T18:26:13;12.90;77.50
30385;DHT22;17181;51.002;4.096;2023-04-15T18:28:39;12.90;78.10
30385;DHT22;17181;51.002;4.096;2023-04-15T18:31:05;12.80;78.60
30385;DHT22;17181;51.002;4.096;2023-04-15T18:33:31;12.70;79.60
30385;DHT22;17181;51.002;4.096;2023-04-15T18:35:59;12.60;80.30
30385;DHT22;17181;51.002;4.096;2023-04-15T18:38:26;12.50;81.00
30385;DHT22;17181;51.002;4.096;2023-04-15T18:40:52;12.40;81.40
30385;DHT22;17181;51.002;4.096;2023-04-15T18:43:18;12.30;81.60
30385;DHT22;17181;51.002;4.096;2023-04-15T18:45:44;12.20;81.90
30385;DHT22;17181;51.002;4.096;2023-04-15T18:48:10;12.00;82.60
30385;DHT22;17181;51.002;4.096;2023-04-15T18:50:36;12.00;82.70
30385;DHT22;17181;51.002;4.096;2023-04-15T18:53:01;11.90;83.30
30385;DHT22;17181;51.002;4.096;2023-04-15T18:55:27;11.80;83.00
30385;DHT22;17181;51.002;4.096;2023-04-15T18:57:53;11.60;83.30
30385;DHT22;17181;51.002;4.096;2023-04-15T19:00:18;11.60;83.20
30385;DHT22;17181;51.002;4.096;2023-04-15T19:02:44;11.50;83.50
30385;DHT22;17181;51.002;4.096;2023-04-15T19:05:10;11.40;84.10
30385;DHT22;17181;51.002;4.096;2023-04-15T19:07:36;11.30;84.50
30385;DHT22;17181;51.002;4.096;2023-04-15T19:10:03;11.30;84.40
30385;DHT22;17181;51.002;4.096;2023-04-15T19:12:30;11.20;84.80
30385;DHT22;17181;51.002;4.096;2023-04-15T19:14:55;11.20;85.20
30385;DHT22;17181;51.002;4.096;2023-04-15T19:17:21;11.10;85.20
30385;DHT22;17181;51.002;4.096;2023-04-15T19:19:47;11.00;85.60
30385;DHT22;17181;51.002;4.096;2023-04-15T19:22:13;11.00;85.90
30385;DHT22;17181;51.002;4.096;2023-04-15T19:24:39;10.90;86.00
30385;DHT22;17181;51.002;4.096;2023-04-15T19:27:05;10.80;86.00
30385;DHT22;17181;51.002;4.096;2023-04-15T19:29:31;10.80;86.20
30385;DHT22;17181;51.002;4.096;2023-04-15T19:31:57;10.80;86.70
30385;DHT22;17181;51.002;4.096;2023-04-15T19:34:23;10.70;86.60
30385;DHT22;17181;51.002;4.096;2023-04-15T19:36:49;10.60;86.60
30385;DHT22;17181;51.002;4.096;2023-04-15T19:39:16;10.60;87.20
30385;DHT22;17181;51.002;4.096;2023-04-15T19:41:41;10.50;88.10
30385;DHT22;17181;51.002;4.096;2023-04-15T19:44:08;10.40;89.50
30385;DHT22;17181;51.002;4.096;2023-04-15T19:46:37;10.40;89.80
30385;DHT22;17181;51.002;4.096;2023-04-15T19:49:03;10.30;90.10
30385;DHT22;17181;51.002;4.096;2023-04-15T19:51:29;10.30;90.50
30385;DHT22;17181;51.002;4.096;2023-04-15T19:53:56;10.20;90.30
30385;DHT22;17181;51.002;4.096;2023-04-15T19:56:22;10.20;90.20
30385;DHT22;17181;51.002;4.096;2023-04-15T19:58:48;10.20;90.40
30385;DHT22;17181;51.002;4.096;2023-04-15T20:01:18;10.10;90.30
30385;DHT22;17181;51.002;4.096;2023-04-15T20:03:45;10.10;90.40
30385;DHT22;17181;51.002;4.096;2023-04-15T20:06:10;10.10;91.00
30385;DHT22;17181;51.002;4.096;2023-04-15T20:08:36;10.00;91.30
30385;DHT22;17181;51.002;4.096;2023-04-15T20:11:02;9.90;91.30
30385;DHT22;17181;51.002;4.096;2023-04-15T20:13:30;9.90;91.60
30385;DHT22;17181;51.002;4.096;2023-04-15T20:15:56;9.80;91.50
30385;DHT22;17181;51.002;4.096;2023-04-15T20:18:21;9.80;91.70
30385;DHT22;17181;51.002;4.096;2023-04-15T20:20:47;9.80;91.80
30385;DHT22;17181;51.002;4.096;2023-04-15T20:23:13;9.70;91.70
30385;DHT22;17181;51.002;4.096;2023-04-15T20:25:38;9.70;92.00
30385;DHT22;17181;51.002;4.096;2023-04-15T20:28:04;9.60;92.00
30385;DHT22;17181;51.002;4.096;2023-04-15T20:30:30;9.60;92.30
30385;DHT22;17181;51.002;4.096;2023-04-15T20:32:56;9.50;92.40
30385;DHT22;17181;51.002;4.096;2023-04-15T20:35:21;9.50;92.40
30385;DHT22;17181;51.002;4.096;2023-04-15T20:37:48;9.50;92.60
30385;DHT22;17181;51.002;4.096;2023-04-15T20:40:13;9.40;92.60
30385;DHT22;17181;51.002;4.096;2023-04-15T20:42:39;9.40;92.60
30385;DHT22;17181;51.002;4.096;2023-04-15T20:45:08;9.40;92.70
30385;DHT22;17181;51.002;4.096;2023-04-15T20:47:34;9.30;92.80
30385;DHT22;17181;51.002;4.096;2023-04-15T20:50:00;9.40;92.80
30385;DHT22;17181;51.002;4.096;2023-04-15T20:52:26;9.30;93.00
30385;DHT22;17181;51.002;4.096;2023-04-15T20:54:51;9.40;93.00
30385;DHT22;17181;51.002;4.096;2023-04-15T20:57:17;9.40;93.20
30385;DHT22;17181;51.002;4.096;2023-04-15T20:59:45;9.50;93.30
30385;DHT22;17181;51.002;4.096;2023-04-15T21:02:11;9.40;93.70
30385;DHT22;17181;51.002;4.096;2023-04-15T21:04:36;9.50;93.80
30385;DHT22;17181;51.002;4.096;2023-04-15T21:07:03;9.40;93.80
30385;DHT22;17181;51.002;4.096;2023-04-15T21:09:29;9.40;94.00
30385;DHT22;17181;51.002;4.096;2023-04-15T21:11:55;9.40;94.60
30385;DHT22;17181;51.002;4.096;2023-04-15T21:14:21;9.30;95.20
30385;DHT22;17181;51.002;4.096;2023-04-15T21:16:47;9.30;95.00
30385;DHT22;17181;51.002;4.096;2023-04-15T21:19:13;9.20;95.00
30385;DHT22;17181;51.002;4.096;2023-04-15T21:21:39;9.20;94.90
30385;DHT22;17181;51.002;4.096;2023-04-15T21:24:04;9.20;95.60
30385;DHT22;17181;51.002;4.096;2023-04-15T21:26:32;9.10;96.50
30385;DHT22;17181;51.002;4.096;2023-04-15T21:28:58;9.00;96.30
30385;DHT22;17181;51.002;4.096;2023-04-15T21:31:24;9.10;96.30
30385;DHT22;17181;51.002;4.096;2023-04-15T21:33:50;9.10;96.40
30385;DHT22;17181;51.002;4.096;2023-04-15T21:36:16;9.10;96.60
30385;DHT22;17181;51.002;4.096;2023-04-15T21:38:41;9.10;96.70
30385;DHT22;17181;51.002;4.096;2023-04-15T21:41:07;9.10;96.70
30385;DHT22;17181;51.002;4.096;2023-04-15T21:43:35;9.10;97.10
30385;DHT22;17181;51.002;4.096;2023-04-15T21:46:01;9.10;97.20
30385;DHT22;17181;51.002;4.096;2023-04-15T21:48:27;9.10;97.10
30385;DHT22;17181;51.002;4.096;2023-04-15T21:50:59;9.10;97.00
30385;DHT22;17181;51.002;4.096;2023-04-15T21:53:26;9.00;97.20
30385;DHT22;17181;51.002;4.096;2023-04-15T21:55:52;9.00;97.30
30385;DHT22;17181;51.002;4.096;2023-04-15T21:58:18;8.90;97.50
30385;DHT22;17181;51.002;4.096;2023-04-15T22:00:44;8.90;97.40
30385;DHT22;17181;51.002;4.096;2023-04-15T22:03:09;8.80;97.50
30385;DHT22;17181;51.002;4.096;2023-04-15T22:05:35;8.80;97.60
30385;DHT22;17181;51.002;4.096;2023-04-15T22:08:01;8.70;97.50
30385;DHT22;17181;51.002;4.096;2023-04-15T22:10:34;8.70;97.60
30385;DHT22;17181;51.002;4.096;2023-04-15T22:13:01;8.60;97.60
30385;DHT22;17181;51.002;4.096;2023-04-15T22:15:31;8.60;97.80
30385;DHT22;17181;51.002;4.096;2023-04-15T22:17:57;8.60;98.50
30385;DHT22;17181;51.002;4.096;2023-04-15T22:20:23;8.60;98.60
30385;DHT22;17181;51.002;4.096;2023-04-15T22:22:49;8.60;99.00
30385;DHT22;17181;51.002;4.096;2023-04-15T22:25:14;8.60;99.50
30385;DHT22;17181;51.002;4.096;2023-04-15T22:27:40;8.60;99.40
30385;DHT22;17181;51.002;4.096;2023-04-15T22:30:06;8.70;99.60
30385;DHT22;17181;51.002;4.096;2023-04-15T22:32:32;8.70;99.90
30385;DHT22;17181;51.002;4.096;2023-04-15T22:34:58;8.70;99.90
30385;DHT22;17181;51.002;4.096;2023-04-15T22:37:24;8.80;99.90
30385;DHT22;17181;51.002;4.096;2023-04-15T22:39:50;8.80;99.90
30385;DHT22;17181;51.002;4.096;2023-04-15T22:42:16;8.80;99.90
30385;DHT22;17181;51.002;4.096;2023-04-15T22:44:42;8.90;99.90
30385;DHT22;17181;51.002;4.096;2023-04-15T22:47:07;8.90;99.90
30385;DHT22;17181;51.002;4.096;2023-04-15T22:49:33;9.00;99.90
30385;DHT22;17181;51.002;4.096;2023-04-15T22:52:00;9.00;99.90
30385;DHT22;17181;51.002;4.096;2023-04-15T22:54:26;9.10;99.90
30385;DHT22;17181;51.002;4.096;2023-04-15T22:56:52;9.10;99.90
30385;DHT22;17181;51.002;4.096;2023-04-15T22:59:18;9.20;99.90
30385;DHT22;17181;51.002;4.096;2023-04-15T23:01:43;9.20;99.90